W.w. Crum — WDB7252 — position and weather

sailwx.info

Track history (hours):
 
Tides and Currents Weather Stations Pressure Air Temp Water Temp Dewpoint Dewpoint Depression Visibility Wind Speed Wind Dir Waves Ship Positions

W.w. Crum

Owner: Magnolia Marine Transport Co, Vicksburg, MS. More information available from US FCC via Universal Licensing System and Coast Guard Vessel Documentation Center.

Last reported at 2018-May-26 17:15 UTC. Time now 2018-May-26 17:51 UTC.
Position N 32°38' W 091°09'.

Length 40 m; draft 2.7 m.

Type: Towing. MMSI: 366939330.

Date/timePositionNaut miles runAvg speedWind from/ knotsBaromVisibWave heightAir tempDewpointWater temp
2018-May-26 17:15N 32°38' W 091°09'1 5.2
2018-May-26 17:00N 32°36' W 091°09'2 4.6
2018-May-26 16:30N 32°35' W 091°07'2 4.3
2018-May-26 16:00N 32°33' W 091°06'3 4.9
2018-May-26 15:28N 32°30' W 091°07'2 4.8
2018-May-26 15:00N 32°28' W 091°06'3 5.0
2018-May-26 14:29N 32°27' W 091°04'2 4.9
2018-May-26 14:00N 32°26' W 091°01'2 4.2
2018-May-26 13:30N 32°24' W 090°60'3 5.2
2018-May-26 13:00N 32°22' W 091°00'2 4.6
2018-May-26 12:30N 32°21' W 090°58'2 4.6
2018-May-26 12:00N 32°21' W 090°55'1 2.3
2018-May-26 11:30N 32°20' W 090°54'1 1.7
2018-May-26 11:00N 32°21' W 090°53'2 3.0
2018-May-26 10:30N 32°22' W 090°53'0 0.9
2018-May-26 09:59N 32°23' W 090°52'0 0.6
2018-May-26 09:30N 32°23' W 090°53'0 0.0
2018-May-26 09:00N 32°23' W 090°53'0 0.0
2018-May-26 08:30N 32°23' W 090°53'0 0.0
2018-May-26 08:00N 32°23' W 090°53'0 0.0
2018-May-26 07:30N 32°23' W 090°53'0 0.0
2018-May-26 07:00N 32°23' W 090°53'0 0.0
2018-May-26 06:30N 32°23' W 090°53'0 0.0
2018-May-26 05:30N 32°23' W 090°53'0 0.7
2018-May-26 05:00N 32°23' W 090°53'1 1.5
2018-May-26 04:30N 32°22' W 090°53'1 1.8
2018-May-26 04:00N 32°21' W 090°53'2 4.0
2018-May-26 03:30N 32°21' W 090°55'4 8.6
2018-May-26 03:00N 32°21' W 091°00'5 9.4
2018-May-26 02:30N 32°26' W 091°02'510.8
2018-May-26 02:00N 32°29' W 091°07'510.5
2018-May-26 01:30N 32°35' W 091°07'510.0
2018-May-26 00:58N 32°40' W 091°08'511.3
2018-May-26 00:30N 32°43' W 091°03'  
2018-May-23 00:12N 32°46' W 091°09'1 5.7
2018-May-23 00:00N 32°45' W 091°09'6 3.0
2018-May-22 22:07N 32°40' W 091°08'1 7.7
2018-May-22 22:00N 32°39' W 091°09'4 7.9
2018-May-22 21:30N 32°35' W 091°08'3 6.4
2018-May-22 21:00N 32°33' W 091°06'3 6.5
2018-May-22 20:31N 32°30' W 091°07'3 6.7
2018-May-22 20:00N 32°27' W 091°04'3 6.8
2018-May-22 19:30N 32°26' W 091°01'3 5.8
2018-May-22 19:00N 32°23' W 091°00'3 5.4
2018-May-22 18:31N 32°21' W 090°58'3 5.9
2018-May-22 18:00N 32°20' W 090°54'2 4.7
2018-May-22 17:30N 32°22' W 090°53'1 1.5
2018-May-22 17:01N 32°23' W 090°53'0 0.0
2018-May-22 16:28N 32°23' W 090°53'1 1.9
2018-May-22 16:00N 32°23' W 090°54'0 0.4
2018-May-22 15:30N 32°23' W 090°54'0 0.8
2018-May-22 15:00N 32°23' W 090°54'1 2.2
2018-May-22 14:31N 32°23' W 090°52'1 1.6
2018-May-22 14:01N 32°22' W 090°53'2 3.4
2018-May-22 13:31N 32°20' W 090°54'1 1.7
2018-May-22 13:01N 32°20' W 090°54'3 5.1
2018-May-22 12:30N 32°18' W 090°56'2 4.7
2018-May-22 12:00N 32°16' W 090°58'3 6.0
2018-May-22 11:30N 32°13' W 090°59'3 6.1
2018-May-22 11:00N 32°10' W 090°60'3 5.9
2018-May-22 10:31N 32°07' W 091°01'3 6.2
2018-May-22 09:59N 32°08' W 091°05'2 4.1
2018-May-22 09:30N 32°06' W 091°06'4 6.6
2018-May-22 08:58N 32°04' W 091°03'3 6.6
2018-May-22 08:26N 32°00' W 091°05'6 5.8
2018-May-22 07:23N 31°58' W 091°11'10 5.4
2018-May-22 05:34N 31°51' W 091°20'0 6.0
2018-May-22 05:30N 31°51' W 091°20'  
2018-May-18 07:34N 31°57' W 091°12'1 9.2
2018-May-18 07:30N 31°57' W 091°11'5 7.6
2018-May-18 06:47N 31°60' W 091°06'3 8.8
2018-May-18 06:29N 32°02' W 091°04'4 7.5
2018-May-18 06:00N 32°05' W 091°05'3 5.5
2018-May-18 05:30N 32°08' W 091°05'4 7.8
2018-May-18 05:00N 32°08' W 091°01'4 9.0
2018-May-18 04:30N 32°12' W 090°59'4 8.5
2018-May-18 04:01N 32°16' W 090°57'5 9.7
2018-May-18 03:30N 32°20' W 090°54'1 2.2
2018-May-18 03:00N 32°21' W 090°53'0 0.0
2018-May-18 02:31N 32°21' W 090°53'0 0.1
2018-May-18 02:00N 32°21' W 090°53'1 1.2
2018-May-18 01:30N 32°22' W 090°53'0 0.0
2018-May-18 01:00N 32°22' W 090°53'0 0.0
2018-May-18 00:30N 32°22' W 090°53'0 0.0
2018-May-17 23:58N 32°22' W 090°53'1 3.1
2018-May-17 23:31N 32°23' W 090°53'0 0.1
2018-May-17 23:00N 32°23' W 090°53'0 0.1
2018-May-17 22:30N 32°23' W 090°53'0 0.0
2018-May-17 22:00N 32°23' W 090°53'0 0.0
2018-May-17 21:30N 32°23' W 090°53'0 0.0
2018-May-17 21:00N 32°23' W 090°53'0 0.0
2018-May-17 20:30N 32°23' W 090°53'1 1.8
2018-May-17 20:01N 32°23' W 090°54'0 0.0
2018-May-17 19:31N 32°23' W 090°54'0 0.0
2018-May-17 19:00N 32°23' W 090°54'0 0.0
2018-May-17 18:30N 32°23' W 090°54'0 0.0
2018-May-17 18:00N 32°23' W 090°54'0 0.0
2018-May-17 17:30N 32°23' W 090°54'0 0.0
2018-May-17 17:00N 32°23' W 090°54'0 0.0
2018-May-17 16:30N 32°23' W 090°54'0 0.0
2018-May-17 16:00N 32°23' W 090°54'0 0.0
2018-May-17 15:30N 32°23' W 090°54'0 0.0
2018-May-17 15:00N 32°23' W 090°54'0 0.0
2018-May-17 14:31N 32°23' W 090°54'0 0.0
2018-May-17 14:01N 32°23' W 090°54'0 0.0
2018-May-17 13:30N 32°23' W 090°54'0 0.0
2018-May-17 13:00N 32°23' W 090°54'0 0.0
2018-May-17 12:30N 32°23' W 090°54'0 0.6
2018-May-17 12:00N 32°23' W 090°54'1 1.5
2018-May-17 11:30N 32°23' W 090°53'0 0.0
2018-May-17 11:00N 32°23' W 090°53'0 0.0
2018-May-17 10:30N 32°23' W 090°53'0 0.0
2018-May-17 10:00N 32°23' W 090°53'0 0.0
2018-May-17 09:30N 32°23' W 090°53'0 0.0
2018-May-17 09:00N 32°23' W 090°53'0 0.0
2018-May-17 08:30N 32°23' W 090°53'0 0.0
2018-May-17 08:00N 32°23' W 090°53'0 0.0
2018-May-17 07:30N 32°23' W 090°53'0 0.0
2018-May-17 07:00N 32°23' W 090°53'0 0.0
2018-May-17 06:31N 32°23' W 090°53'0 0.0
2018-May-17 06:00N 32°23' W 090°53'0 0.0
2018-May-17 05:31N 32°23' W 090°53'0 0.0
2018-May-17 05:00N 32°23' W 090°53'0 0.0
2018-May-17 04:30N 32°23' W 090°53'0 0.0
2018-May-17 03:59N 32°23' W 090°53'0 0.0
2018-May-17 03:30N 32°23' W 090°53'0 0.0
2018-May-17 03:00N 32°23' W 090°53'0 0.0
2018-May-17 02:30N 32°23' W 090°53'0 0.3
2018-May-17 01:59N 32°23' W 090°53'0 0.0
2018-May-17 01:31N 32°23' W 090°53'0 0.0
2018-May-17 01:00N 32°23' W 090°53'0 0.0
2018-May-17 00:30N 32°23' W 090°53'0 0.0
2018-May-17 00:01N 32°23' W 090°53'0 0.0
2018-May-16 23:30N 32°23' W 090°53'0 0.0
2018-May-16 22:58N 32°23' W 090°53'0 0.3
2018-May-16 22:30N 32°23' W 090°53'0 0.0
2018-May-16 22:00N 32°23' W 090°53'0 0.0
2018-May-16 21:31N 32°23' W 090°53'0 0.3
2018-May-16 21:00N 32°23' W 090°53'0 0.0
2018-May-16 20:31N 32°23' W 090°53'0 0.0
2018-May-16 20:00N 32°23' W 090°53'0 0.6
2018-May-16 19:30N 32°23' W 090°53'1 1.8
2018-May-16 19:00N 32°23' W 090°54'0 0.7
2018-May-16 18:30N 32°23' W 090°54'0 0.3
2018-May-16 18:00N 32°23' W 090°53'0 0.7
2018-May-16 17:30N 32°23' W 090°54'  
Track history (hours):
 
Tides and Currents Weather Stations Pressure Air Temp Water Temp Dewpoint Dewpoint Depression Visibility Wind Speed Wind Dir Waves Ship Positions

W.w. Crum

Owner: Magnolia Marine Transport Co, Vicksburg, MS. More information available from US FCC via Universal Licensing System and Coast Guard Vessel Documentation Center.

Last reported at 2018-May-26 17:15 UTC. Time now 2018-May-26 17:51 UTC.
Position N 32°38' W 091°09'.

Length 40 m; draft 2.7 m.

Type: Towing. MMSI: 366939330.

Date/timePositionNaut miles runAvg speedWind from/ knotsBaromVisibWave heightAir tempDewpointWater temp
2018-May-26 17:15N 32°38' W 091°09'1 5.2
2018-May-26 17:00N 32°36' W 091°09'2 4.6
2018-May-26 16:30N 32°35' W 091°07'2 4.3
2018-May-26 16:00N 32°33' W 091°06'3 4.9
2018-May-26 15:28N 32°30' W 091°07'2 4.8
2018-May-26 15:00N 32°28' W 091°06'3 5.0
2018-May-26 14:29N 32°27' W 091°04'2 4.9
2018-May-26 14:00N 32°26' W 091°01'2 4.2
2018-May-26 13:30N 32°24' W 090°60'3 5.2
2018-May-26 13:00N 32°22' W 091°00'2 4.6
2018-May-26 12:30N 32°21' W 090°58'2 4.6
2018-May-26 12:00N 32°21' W 090°55'1 2.3
2018-May-26 11:30N 32°20' W 090°54'1 1.7
2018-May-26 11:00N 32°21' W 090°53'2 3.0
2018-May-26 10:30N 32°22' W 090°53'0 0.9
2018-May-26 09:59N 32°23' W 090°52'0 0.6
2018-May-26 09:30N 32°23' W 090°53'0 0.0
2018-May-26 09:00N 32°23' W 090°53'0 0.0
2018-May-26 08:30N 32°23' W 090°53'0 0.0
2018-May-26 08:00N 32°23' W 090°53'0 0.0
2018-May-26 07:30N 32°23' W 090°53'0 0.0
2018-May-26 07:00N 32°23' W 090°53'0 0.0
2018-May-26 06:30N 32°23' W 090°53'0 0.0
2018-May-26 05:30N 32°23' W 090°53'0 0.7
2018-May-26 05:00N 32°23' W 090°53'1 1.5
2018-May-26 04:30N 32°22' W 090°53'1 1.8
2018-May-26 04:00N 32°21' W 090°53'2 4.0
2018-May-26 03:30N 32°21' W 090°55'4 8.6
2018-May-26 03:00N 32°21' W 091°00'5 9.4
2018-May-26 02:30N 32°26' W 091°02'510.8
2018-May-26 02:00N 32°29' W 091°07'510.5
2018-May-26 01:30N 32°35' W 091°07'510.0
2018-May-26 00:58N 32°40' W 091°08'511.3
2018-May-26 00:30N 32°43' W 091°03'  
2018-May-23 00:12N 32°46' W 091°09'1 5.7
2018-May-23 00:00N 32°45' W 091°09'6 3.0
2018-May-22 22:07N 32°40' W 091°08'1 7.7
2018-May-22 22:00N 32°39' W 091°09'4 7.9
2018-May-22 21:30N 32°35' W 091°08'3 6.4
2018-May-22 21:00N 32°33' W 091°06'3 6.5
2018-May-22 20:31N 32°30' W 091°07'3 6.7
2018-May-22 20:00N 32°27' W 091°04'3 6.8
2018-May-22 19:30N 32°26' W 091°01'3 5.8
2018-May-22 19:00N 32°23' W 091°00'3 5.4
2018-May-22 18:31N 32°21' W 090°58'3 5.9
2018-May-22 18:00N 32°20' W 090°54'2 4.7
2018-May-22 17:30N 32°22' W 090°53'1 1.5
2018-May-22 17:01N 32°23' W 090°53'0 0.0
2018-May-22 16:28N 32°23' W 090°53'1 1.9
2018-May-22 16:00N 32°23' W 090°54'0 0.4
2018-May-22 15:30N 32°23' W 090°54'0 0.8
2018-May-22 15:00N 32°23' W 090°54'1 2.2
2018-May-22 14:31N 32°23' W 090°52'1 1.6
2018-May-22 14:01N 32°22' W 090°53'2 3.4
2018-May-22 13:31N 32°20' W 090°54'1 1.7
2018-May-22 13:01N 32°20' W 090°54'3 5.1
2018-May-22 12:30N 32°18' W 090°56'2 4.7
2018-May-22 12:00N 32°16' W 090°58'3 6.0
2018-May-22 11:30N 32°13' W 090°59'3 6.1
2018-May-22 11:00N 32°10' W 090°60'3 5.9
2018-May-22 10:31N 32°07' W 091°01'3 6.2
2018-May-22 09:59N 32°08' W 091°05'2 4.1
2018-May-22 09:30N 32°06' W 091°06'4 6.6
2018-May-22 08:58N 32°04' W 091°03'3 6.6
2018-May-22 08:26N 32°00' W 091°05'6 5.8
2018-May-22 07:23N 31°58' W 091°11'10 5.4
2018-May-22 05:34N 31°51' W 091°20'0 6.0
2018-May-22 05:30N 31°51' W 091°20'  
2018-May-18 07:34N 31°57' W 091°12'1 9.2
2018-May-18 07:30N 31°57' W 091°11'5 7.6
2018-May-18 06:47N 31°60' W 091°06'3 8.8
2018-May-18 06:29N 32°02' W 091°04'4 7.5
2018-May-18 06:00N 32°05' W 091°05'3 5.5
2018-May-18 05:30N 32°08' W 091°05'4 7.8
2018-May-18 05:00N 32°08' W 091°01'4 9.0
2018-May-18 04:30N 32°12' W 090°59'4 8.5
2018-May-18 04:01N 32°16' W 090°57'5 9.7
2018-May-18 03:30N 32°20' W 090°54'1 2.2
2018-May-18 03:00N 32°21' W 090°53'0 0.0
2018-May-18 02:31N 32°21' W 090°53'0 0.1
2018-May-18 02:00N 32°21' W 090°53'1 1.2
2018-May-18 01:30N 32°22' W 090°53'0 0.0
2018-May-18 01:00N 32°22' W 090°53'0 0.0
2018-May-18 00:30N 32°22' W 090°53'0 0.0
2018-May-17 23:58N 32°22' W 090°53'1 3.1
2018-May-17 23:31N 32°23' W 090°53'0 0.1
2018-May-17 23:00N 32°23' W 090°53'0 0.1
2018-May-17 22:30N 32°23' W 090°53'0 0.0
2018-May-17 22:00N 32°23' W 090°53'0 0.0
2018-May-17 21:30N 32°23' W 090°53'0 0.0
2018-May-17 21:00N 32°23' W 090°53'0 0.0
2018-May-17 20:30N 32°23' W 090°53'1 1.8
2018-May-17 20:01N 32°23' W 090°54'0 0.0
2018-May-17 19:31N 32°23' W 090°54'0 0.0
2018-May-17 19:00N 32°23' W 090°54'0 0.0
2018-May-17 18:30N 32°23' W 090°54'0 0.0
2018-May-17 18:00N 32°23' W 090°54'0 0.0
2018-May-17 17:30N 32°23' W 090°54'0 0.0
2018-May-17 17:00N 32°23' W 090°54'0 0.0
2018-May-17 16:30N 32°23' W 090°54'0 0.0
2018-May-17 16:00N 32°23' W 090°54'0 0.0
2018-May-17 15:30N 32°23' W 090°54'0 0.0
2018-May-17 15:00N 32°23' W 090°54'0 0.0
2018-May-17 14:31N 32°23' W 090°54'0 0.0
2018-May-17 14:01N 32°23' W 090°54'0 0.0
2018-May-17 13:30N 32°23' W 090°54'0 0.0
2018-May-17 13:00N 32°23' W 090°54'0 0.0
2018-May-17 12:30N 32°23' W 090°54'0 0.6
2018-May-17 12:00N 32°23' W 090°54'1 1.5
2018-May-17 11:30N 32°23' W 090°53'0 0.0
2018-May-17 11:00N 32°23' W 090°53'0 0.0
2018-May-17 10:30N 32°23' W 090°53'0 0.0
2018-May-17 10:00N 32°23' W 090°53'0 0.0
2018-May-17 09:30N 32°23' W 090°53'0 0.0
2018-May-17 09:00N 32°23' W 090°53'0 0.0
2018-May-17 08:30N 32°23' W 090°53'0 0.0
2018-May-17 08:00N 32°23' W 090°53'0 0.0
2018-May-17 07:30N 32°23' W 090°53'0 0.0
2018-May-17 07:00N 32°23' W 090°53'0 0.0
2018-May-17 06:31N 32°23' W 090°53'0 0.0
2018-May-17 06:00N 32°23' W 090°53'0 0.0
2018-May-17 05:31N 32°23' W 090°53'0 0.0
2018-May-17 05:00N 32°23' W 090°53'0 0.0
2018-May-17 04:30N 32°23' W 090°53'0 0.0
2018-May-17 03:59N 32°23' W 090°53'0 0.0
2018-May-17 03:30N 32°23' W 090°53'0 0.0
2018-May-17 03:00N 32°23' W 090°53'0 0.0
2018-May-17 02:30N 32°23' W 090°53'0 0.3
2018-May-17 01:59N 32°23' W 090°53'0 0.0
2018-May-17 01:31N 32°23' W 090°53'0 0.0
2018-May-17 01:00N 32°23' W 090°53'0 0.0
2018-May-17 00:30N 32°23' W 090°53'0 0.0
2018-May-17 00:01N 32°23' W 090°53'0 0.0
2018-May-16 23:30N 32°23' W 090°53'0 0.0
2018-May-16 22:58N 32°23' W 090°53'0 0.3
2018-May-16 22:30N 32°23' W 090°53'0 0.0
2018-May-16 22:00N 32°23' W 090°53'0 0.0
2018-May-16 21:31N 32°23' W 090°53'0 0.3
2018-May-16 21:00N 32°23' W 090°53'0 0.0
2018-May-16 20:31N 32°23' W 090°53'0 0.0
2018-May-16 20:00N 32°23' W 090°53'0 0.6
2018-May-16 19:30N 32°23' W 090°53'1 1.8
2018-May-16 19:00N 32°23' W 090°54'0 0.7
2018-May-16 18:30N 32°23' W 090°54'0 0.3
2018-May-16 18:00N 32°23' W 090°53'0 0.7
2018-May-16 17:30N 32°23' W 090°54'  

Dump ship's entire track history